ENG CAT
Escuela de Pilotos
Teléfono 972234126 972 23 41 26
 
Aerbrava - Meteorología

Información meteorológica aeronáutica

 

En este apartado aparece la información meteorológica aeronáutica que es utilizada en las prácticas de los alumnos de la Escuela de Pilotos de nuestro centro durante su formación, por lo que puede no ser actual y se debería utilizar por su propia cuenta y riesgo. AERBRAVA no se hace responsable de su uso.

 

TIEMPO ACTUAL

Satélite Meteorológico

sat24.com

Servei Meteorològic de Catalunya

 

LEGE 281630Z 20007KT 170V230 CAVOK 26/13 Q1009
LEGE 281600Z 20008KT 170V250 CAVOK 27/13 Q1009
LEGE 281530Z 19007KT CAVOK 27/13 Q1010
LEGE 281500Z 19010KT 160V220 CAVOK 26/13 Q1010
LEGE 281430Z 20012KT 170V240 CAVOK 27/14 Q1010
LEGE 281400Z 19010KT 160V260 CAVOK 28/13 Q1010
LEGE 281330Z 20009KT 150V260 CAVOK 28/12 Q1010
LEGE 281300Z 19008KT 160V240 CAVOK 28/12 Q1011
TAF LEGE 281100Z 2812/2912 18010KT 9999 FEW050 TX29/2814Z TN16/2906Z   PROB30   TEMPO 2812/2816 FEW050TCU   BECMG 2818/2820 VRB03KT   BECMG 2910/2912 20010KT

Aviation Weather

 
Aerbrava en el facebook Aerbrava en el twitter Aerbrava instagram Aerbrava en el youtube Aerbrava tumblr Aerbrava flikr Aerbrava pinterest

¡html Vàlid! ¡CSS Vàlid!